Time;durP1;ratioP1;P1;durP2;ratioP2;P2;SDS_P1;SDS_P2;PMS_P1;PMS_P2;Temp;Humidity;BMP_temperature;BMP_pressure;BME280_temperature;BME280_humidity;BME280_pressure;Samples;Min_cycle;Max_cycle;Signal;HPM_P1;HPM_P2
2022/12/03 00:00:38;;;;;;;25.25;22.55;;;4.90;99.90;;;;;;5053375;28;20119;-62
2022/12/03 00:03:04;;;;;;;22.80;19.42;;;4.80;99.90;;;;;;5053901;28;20029;-62
2022/12/03 00:05:29;;;;;;;21.67;18.52;;;4.80;99.90;;;;;;5053168;28;20057;-61
2022/12/03 00:07:55;;;;;;;25.63;20.88;;;4.80;99.90;;;;;;5053383;28;20032;-61
2022/12/03 00:10:21;;;;;;;20.38;18.02;;;4.80;99.90;;;;;;5053297;28;20044;-61
2022/12/03 00:12:47;;;;;;;20.38;17.95;;;4.90;99.90;;;;;;5053254;28;20028;-62
2022/12/03 00:15:12;;;;;;;24.33;19.98;;;4.90;99.90;;;;;;5053268;28;20405;-61
2022/12/03 00:17:38;;;;;;;21.58;19.27;;;4.90;99.90;;;;;;5053192;28;20068;-61
2022/12/03 00:20:06;;;;;;;21.17;18.15;;;4.80;99.90;;;;;;5052988;28;20029;-62
2022/12/03 00:22:32;;;;;;;66.40;60.25;;;4.90;99.90;;;;;;5053503;28;20441;-62
2022/12/03 00:24:57;;;;;;;33.25;30.00;;;4.80;99.90;;;;;;5052943;28;20029;-61
2022/12/03 00:27:23;;;;;;;26.67;24.02;;;4.80;99.90;;;;;;5034669;28;20032;-62
2022/12/03 00:29:49;;;;;;;33.55;30.20;;;4.70;99.90;;;;;;5052873;28;20029;-61
2022/12/03 00:32:15;;;;;;;25.13;22.25;;;4.70;99.90;;;;;;5052849;28;20429;-62
2022/12/03 00:34:40;;;;;;;23.67;20.63;;;4.70;99.90;;;;;;5053099;28;20513;-62
2022/12/03 00:37:06;;;;;;;25.35;22.20;;;4.70;99.90;;;;;;5052777;28;20101;-62
2022/12/03 00:39:31;;;;;;;23.27;20.88;;;4.70;99.90;;;;;;5052439;28;20033;-62
2022/12/03 00:41:58;;;;;;;24.08;20.63;;;4.70;99.90;;;;;;5052589;28;20033;-62
2022/12/03 00:44:24;;;;;;;22.35;19.95;;;4.70;99.90;;;;;;5052707;28;20047;-62
2022/12/03 00:46:50;;;;;;;21.88;19.55;;;4.80;99.90;;;;;;5052971;28;20108;-62
2022/12/03 00:49:15;;;;;;;21.83;18.67;;;4.80;99.90;;;;;;5052110;28;20035;-61
2022/12/03 00:51:41;;;;;;;21.08;18.52;;;4.80;99.90;;;;;;5052602;28;20025;-62
2022/12/03 00:54:07;;;;;;;22.15;18.90;;;4.80;99.90;;;;;;5052372;28;20069;-62
2022/12/03 00:56:32;;;;;;;21.83;18.45;;;4.80;99.90;;;;;;5052459;28;20208;-62
2022/12/03 00:58:58;;;;;;;21.67;18.77;;;4.70;99.90;;;;;;5052272;28;20037;-62
2022/12/03 01:01:24;;;;;;;24.42;19.42;;;4.80;99.90;;;;;;5052106;28;20025;-62
2022/12/03 01:03:50;;;;;;;23.73;20.00;;;4.80;99.90;;;;;;5052239;28;20032;-61
2022/12/03 01:06:15;;;;;;;22.00;19.38;;;4.70;99.90;;;;;;5052607;28;20024;-62
2022/12/03 01:08:41;;;;;;;23.55;18.75;;;4.80;99.90;;;;;;5051950;28;20500;-62
2022/12/03 01:11:36;;;;;;;20.50;18.00;;;4.80;99.90;;;;;;5052107;28;20013;-62
2022/12/03 01:13:52;;;;;;;21.20;17.95;;;4.90;99.90;;;;;;5051912;28;20051;-62
2022/12/03 01:16:18;;;;;;;20.13;18.02;;;4.90;99.90;;;;;;5051968;28;20029;-61
2022/12/03 01:18:45;;;;;;;21.92;18.23;;;4.90;99.90;;;;;;5052154;28;20025;-62
2022/12/03 01:21:11;;;;;;;20.88;18.67;;;4.90;99.90;;;;;;5052424;28;20096;-62
2022/12/03 01:23:36;;;;;;;21.58;19.27;;;4.90;99.90;;;;;;5051949;28;20593;-62
2022/12/03 01:26:02;;;;;;;22.55;19.38;;;4.90;99.90;;;;;;5051560;28;20497;-62
2022/12/03 01:28:28;;;;;;;21.20;18.90;;;4.90;99.90;;;;;;5051932;28;20048;-62
2022/12/03 01:33:38;;;;;;;19.70;17.60;;;4.90;99.90;;;;;;5052107;28;20124;-61
2022/12/03 01:36:04;;;;;;;22.33;18.25;;;4.90;99.90;;;;;;5051833;28;20477;-61
2022/12/03 01:38:29;;;;;;;19.60;17.42;;;5.00;99.90;;;;;;5051808;28;20029;-61
2022/12/03 01:40:55;;;;;;;20.42;17.20;;;4.90;99.90;;;;;;5051011;28;20099;-62
2022/12/03 01:43:21;;;;;;;22.10;18.23;;;4.90;99.90;;;;;;5051620;28;20021;-62
2022/12/03 01:45:46;;;;;;;19.40;16.73;;;4.90;99.90;;;;;;5051442;28;20029;-61
2022/12/03 01:48:18;;;;;;;20.67;18.35;;;5.00;99.90;;;;;;5051473;28;20021;-62
2022/12/03 01:50:44;;;;;;;20.50;17.23;;;4.90;99.90;;;;;;5051384;28;20033;-62
2022/12/03 01:53:14;;;;;;;19.45;17.02;;;4.90;99.90;;;;;;5051391;28;20031;-62
2022/12/03 01:55:42;;;;;;;20.10;17.98;;;4.80;99.90;;;;;;5051091;28;20051;-61
2022/12/03 01:58:11;;;;;;;20.42;16.73;;;4.80;99.90;;;;;;5051323;28;20028;-62
2022/12/03 02:00:37;;;;;;;19.45;17.23;;;4.80;99.90;;;;;;5050229;28;20053;-62
2022/12/03 02:03:14;;;;;;;20.30;16.30;;;4.80;99.90;;;;;;5051775;28;20056;-62
2022/12/03 02:05:39;;;;;;;22.25;17.40;;;4.80;99.90;;;;;;5051269;28;20338;-62
2022/12/03 02:08:30;;;;;;;19.60;16.83;;;4.80;99.90;;;;;;5051032;28;20032;-62
2022/12/03 02:11:08;;;;;;;20.40;17.25;;;4.90;99.90;;;;;;5050746;28;20028;-62
2022/12/03 02:13:35;;;;;;;20.92;16.88;;;4.80;99.90;;;;;;5051073;28;20037;-61
2022/12/03 02:16:01;;;;;;;19.33;17.33;;;4.80;99.90;;;;;;5051090;28;20032;-61
2022/12/03 02:18:27;;;;;;;19.40;16.38;;;4.80;99.90;;;;;;5051198;28;20025;-62
2022/12/03 02:21:08;;;;;;;17.92;16.02;;;4.90;99.90;;;;;;5051464;28;20055;-62
2022/12/03 02:23:37;;;;;;;18.42;16.42;;;4.90;99.90;;;;;;5050854;28;20180;-61
2022/12/03 02:26:02;;;;;;;22.50;17.33;;;4.90;99.90;;;;;;5050147;28;20036;-61
2022/12/03 02:28:28;;;;;;;21.95;17.63;;;4.80;99.90;;;;;;5050894;28;20112;-62
2022/12/03 02:30:54;;;;;;;19.35;17.15;;;4.90;99.90;;;;;;5051323;28;20021;-62
2022/12/03 02:33:20;;;;;;;19.27;17.20;;;4.90;99.90;;;;;;5050953;28;20036;-62
2022/12/03 02:35:46;;;;;;;19.98;16.83;;;4.90;99.90;;;;;;5051306;28;20031;-61
2022/12/03 02:38:21;;;;;;;19.55;17.10;;;4.90;99.90;;;;;;5050839;28;20462;-62
2022/12/03 02:40:51;;;;;;;20.08;16.27;;;4.90;99.90;;;;;;5050717;28;20208;-62
2022/12/03 02:43:19;;;;;;;20.40;16.80;;;4.80;99.90;;;;;;5050908;28;20033;-62
2022/12/03 02:45:52;;;;;;;19.92;17.13;;;4.90;99.90;;;;;;5049699;28;20442;-62
2022/12/03 02:48:26;;;;;;;20.45;16.42;;;4.80;99.90;;;;;;5051261;28;20478;-62
2022/12/03 02:50:54;;;;;;;22.23;17.67;;;4.80;99.90;;;;;;5050894;28;20104;-62
2022/12/03 02:53:25;;;;;;;20.38;17.25;;;4.80;99.90;;;;;;5050374;28;20116;-62
2022/12/03 02:55:51;;;;;;;19.17;15.98;;;4.80;99.90;;;;;;5051004;28;20017;-62
2022/12/03 02:58:18;;;;;;;21.65;17.45;;;4.80;99.90;;;;;;5050781;28;20032;-62
2022/12/03 03:00:44;;;;;;;22.38;16.88;;;4.70;99.90;;;;;;5051002;28;20036;-61
2022/12/03 03:03:11;;;;;;;19.67;16.05;;;4.70;99.90;;;;;;5051135;28;20452;-62
2022/12/03 03:05:39;;;;;;;19.92;16.83;;;4.80;99.90;;;;;;5050697;28;20031;-62
2022/12/03 03:08:07;;;;;;;21.55;16.65;;;4.70;99.90;;;;;;5050399;28;20021;-62
2022/12/03 03:10:36;;;;;;;19.50;16.50;;;4.80;99.90;;;;;;5050757;28;20029;-62
2022/12/03 03:13:05;;;;;;;19.50;16.52;;;4.70;99.90;;;;;;5054742;28;20017;-62
2022/12/03 03:15:31;;;;;;;19.85;16.30;;;4.70;99.90;;;;;;5054358;28;20047;-62
2022/12/03 03:17:57;;;;;;;19.45;16.92;;;4.70;99.90;;;;;;5054232;28;20021;-62
2022/12/03 03:20:22;;;;;;;21.80;17.70;;;4.70;99.90;;;;;;5054329;28;20032;-62
2022/12/03 03:22:48;;;;;;;21.38;16.58;;;4.60;99.90;;;;;;5054256;28;20043;-62
2022/12/03 03:25:17;;;;;;;19.10;16.52;;;4.60;99.90;;;;;;5054912;28;20033;-61
2022/12/03 03:27:44;;;;;;;22.02;16.33;;;4.50;99.90;;;;;;5054162;28;20115;-62
2022/12/03 03:30:10;;;;;;;19.75;16.45;;;4.60;99.90;;;;;;5054107;28;20562;-62
2022/12/03 03:32:38;;;;;;;17.63;15.13;;;4.50;99.90;;;;;;5054530;28;20033;-61
2022/12/03 03:35:05;;;;;;;20.50;16.20;;;4.60;99.90;;;;;;5054048;28;20092;-62
2022/12/03 03:37:31;;;;;;;20.67;16.65;;;4.60;99.90;;;;;;5053457;28;20024;-61
2022/12/03 03:39:57;;;;;;;19.50;16.15;;;4.60;99.90;;;;;;5053642;28;20049;-61
2022/12/03 03:42:23;;;;;;;17.48;15.45;;;4.60;99.90;;;;;;5053797;28;20028;-62
2022/12/03 03:44:49;;;;;;;19.42;15.73;;;4.60;99.90;;;;;;5054068;28;20031;-62
2022/12/03 03:47:15;;;;;;;18.85;16.10;;;4.60;99.90;;;;;;5052916;28;20025;-62
2022/12/03 03:49:41;;;;;;;20.45;15.68;;;4.60;99.90;;;;;;5053752;28;20036;-62
2022/12/03 03:52:10;;;;;;;17.38;14.63;;;4.60;99.90;;;;;;5053361;28;20096;-62
2022/12/03 03:54:36;;;;;;;18.38;15.48;;;4.70;99.90;;;;;;5053498;28;20041;-62
2022/12/03 03:57:02;;;;;;;16.55;14.63;;;4.70;99.90;;;;;;5053508;28;20500;-62
2022/12/03 03:59:28;;;;;;;18.05;15.25;;;4.60;99.90;;;;;;5053501;28;20036;-62
2022/12/03 04:01:55;;;;;;;18.50;15.75;;;4.60;99.90;;;;;;5053414;28;20033;-62
2022/12/03 04:04:25;;;;;;;17.27;15.43;;;4.50;99.90;;;;;;5053537;28;20493;-62
2022/12/03 04:06:51;;;;;;;18.38;15.77;;;4.50;99.90;;;;;;5053396;28;20397;-62
2022/12/03 04:09:16;;;;;;;17.60;14.85;;;4.50;99.90;;;;;;5053333;28;20028;-62
2022/12/03 04:14:26;;;;;;;17.67;15.10;;;4.50;99.90;;;;;;5053260;28;20047;-62
2022/12/03 04:16:52;;;;;;;19.30;15.55;;;4.50;99.90;;;;;;5053188;28;20464;-62
2022/12/03 04:19:17;;;;;;;19.77;16.88;;;4.50;99.90;;;;;;5052946;28;20099;-61
2022/12/03 04:24:27;;;;;;;17.75;15.82;;;4.50;99.90;;;;;;5052979;28;20095;-62
2022/12/03 04:29:37;;;;;;;19.42;16.10;;;4.30;99.90;;;;;;5053043;28;20546;-61
2022/12/03 04:37:31;;;;;;;19.65;15.85;;;4.20;99.90;;;;;;5053459;28;20040;-62
2022/12/03 04:39:57;;;;;;;20.40;17.00;;;4.20;99.90;;;;;;5052495;28;20403;-62
2022/12/03 04:42:23;;;;;;;18.42;16.40;;;4.20;99.90;;;;;;5052772;28;20508;-62
2022/12/03 04:44:48;;;;;;;20.27;17.50;;;4.20;99.90;;;;;;5052764;28;20401;-62
2022/12/03 04:47:19;;;;;;;18.42;16.42;;;4.10;99.90;;;;;;5053068;28;20529;-62
2022/12/03 04:49:49;;;;;;;21.77;17.35;;;4.20;99.90;;;;;;5052621;28;20043;-61
2022/12/03 04:52:17;;;;;;;18.70;15.55;;;4.20;99.90;;;;;;5052619;28;20021;-62
2022/12/03 04:54:43;;;;;;;19.80;16.70;;;4.20;99.90;;;;;;5052307;28;20037;-62
2022/12/03 04:57:09;;;;;;;22.80;17.48;;;4.10;99.90;;;;;;5052514;28;20025;-62
2022/12/03 04:59:36;;;;;;;21.38;17.02;;;4.20;99.90;;;;;;5052568;28;20051;-62
2022/12/03 05:02:02;;;;;;;21.65;18.48;;;4.20;99.90;;;;;;5050901;28;20021;-62
2022/12/03 05:04:27;;;;;;;22.30;18.08;;;4.10;99.90;;;;;;5052539;28;20477;-62
2022/12/03 05:06:53;;;;;;;22.02;18.88;;;4.10;99.90;;;;;;5052248;28;20032;-62
2022/12/03 05:09:19;;;;;;;29.55;26.35;;;4.10;99.90;;;;;;5052081;28;20029;-62
2022/12/03 05:11:45;;;;;;;30.80;27.30;;;4.10;99.90;;;;;;5052161;28;20024;-62
2022/12/03 05:14:11;;;;;;;23.30;20.13;;;4.10;99.90;;;;;;5052636;28;20044;-61
2022/12/03 05:16:37;;;;;;;23.02;18.30;;;4.10;99.90;;;;;;5052181;28;20397;-61
2022/12/03 05:19:04;;;;;;;20.70;18.27;;;4.00;99.90;;;;;;5051509;28;20025;-62
2022/12/03 05:21:30;;;;;;;22.88;18.58;;;4.00;99.90;;;;;;5052142;28;20017;-62
2022/12/03 05:23:56;;;;;;;23.25;19.92;;;4.00;99.90;;;;;;5051866;28;20035;-62
2022/12/03 05:26:21;;;;;;;23.55;21.00;;;4.00;99.90;;;;;;5051950;28;20127;-62
2022/12/03 05:28:47;;;;;;;33.90;30.30;;;3.90;99.90;;;;;;5052092;28;20068;-62
2022/12/03 05:31:13;;;;;;;40.03;35.72;;;4.00;99.90;;;;;;5051709;28;20028;-62
2022/12/03 05:33:38;;;;;;;22.65;19.55;;;4.00;99.90;;;;;;5051645;28;20064;-61
2022/12/03 05:36:04;;;;;;;22.55;18.92;;;3.90;99.90;;;;;;5051559;28;20021;-62
2022/12/03 05:38:30;;;;;;;20.63;18.08;;;3.90;99.90;;;;;;5051708;28;20500;-62
2022/12/03 05:40:56;;;;;;;24.83;19.63;;;3.80;99.90;;;;;;5051427;28;20063;-61
2022/12/03 05:43:21;;;;;;;27.08;21.00;;;3.90;99.90;;;;;;5051447;28;20470;-62
2022/12/03 05:45:47;;;;;;;24.48;19.17;;;3.70;99.90;;;;;;5051968;28;20029;-62
2022/12/03 05:48:14;;;;;;;25.73;21.70;;;3.80;99.90;;;;;;5051218;28;20036;-62
2022/12/03 05:50:43;;;;;;;22.95;18.67;;;3.70;99.90;;;;;;5051398;28;20021;-61
2022/12/03 05:53:10;;;;;;;23.10;19.27;;;3.60;99.90;;;;;;5051296;28;20021;-62
2022/12/03 05:55:36;;;;;;;22.00;18.30;;;3.50;99.90;;;;;;5051709;28;20064;-62
2022/12/03 05:58:02;;;;;;;24.77;19.42;;;3.50;99.90;;;;;;5051323;28;20029;-62
2022/12/03 06:00:36;;;;;;;23.98;19.30;;;3.50;99.90;;;;;;5051299;28;20078;-61
2022/12/03 06:03:06;;;;;;;24.52;20.27;;;3.50;99.90;;;;;;5051016;28;20079;-62
2022/12/03 06:05:32;;;;;;;20.05;17.83;;;3.30;99.90;;;;;;5051257;28;20485;-62
2022/12/03 06:07:58;;;;;;;25.10;20.02;;;3.20;99.90;;;;;;5051476;28;20454;-62
2022/12/03 06:10:25;;;;;;;23.23;18.20;;;3.10;99.90;;;;;;5051348;28;20017;-62
2022/12/03 06:12:51;;;;;;;25.25;17.85;;;3.10;99.90;;;;;;5050976;28;20486;-62
2022/12/03 06:15:17;;;;;;;25.23;19.70;;;3.10;99.90;;;;;;5050937;28;20036;-61
2022/12/03 06:17:43;;;;;;;28.10;20.58;;;3.00;99.90;;;;;;5051298;28;20022;-62
2022/12/03 06:20:12;;;;;;;28.52;20.45;;;3.00;99.90;;;;;;5051169;28;20039;-62
2022/12/03 06:22:38;;;;;;;23.15;17.05;;;3.20;99.90;;;;;;5050625;28;20112;-62
2022/12/03 06:25:04;;;;;;;28.48;20.38;;;3.40;99.90;;;;;;5051031;28;20447;-61
2022/12/03 06:27:30;;;;;;;24.90;18.63;;;3.40;99.90;;;;;;5051310;28;20075;-62
2022/12/03 06:29:55;;;;;;;25.83;19.70;;;3.30;99.90;;;;;;5050747;28;20029;-62
2022/12/03 06:32:21;;;;;;;26.92;19.70;;;3.40;99.90;;;;;;5049683;28;20029;-62
2022/12/03 06:34:47;;;;;;;26.27;20.20;;;3.40;99.90;;;;;;5050672;28;20485;-62
2022/12/03 06:37:13;;;;;;;26.25;20.13;;;3.50;99.90;;;;;;5051212;28;20108;-62
2022/12/03 06:39:38;;;;;;;27.02;21.85;;;3.50;99.90;;;;;;5050809;28;20029;-62
2022/12/03 06:42:04;;;;;;;26.60;21.48;;;3.50;99.90;;;;;;5050815;28;20029;-60
2022/12/03 06:44:30;;;;;;;25.85;20.23;;;3.60;99.90;;;;;;5050695;28;20029;-61
2022/12/03 06:46:55;;;;;;;24.65;18.75;;;3.70;99.90;;;;;;5052362;28;20021;-61
2022/12/03 06:49:21;;;;;;;26.50;20.50;;;3.70;99.90;;;;;;5054727;28;20387;-60
2022/12/03 06:51:47;;;;;;;26.40;20.60;;;3.60;99.90;;;;;;5055163;28;20504;-60
2022/12/03 06:54:13;;;;;;;31.23;24.50;;;3.60;99.90;;;;;;5054735;28;20062;-60
2022/12/03 06:56:38;;;;;;;36.50;28.38;;;3.50;99.90;;;;;;5054760;28;20021;-60
2022/12/03 06:59:04;;;;;;;34.08;27.88;;;3.40;99.90;;;;;;5054968;28;20048;-60
2022/12/03 07:01:30;;;;;;;32.63;25.35;;;3.20;99.90;;;;;;5054515;28;20078;-60
2022/12/03 07:03:55;;;;;;;29.98;24.40;;;3.10;99.90;;;;;;5054415;28;20110;-60
2022/12/03 07:06:21;;;;;;;26.52;20.95;;;3.00;99.90;;;;;;5054507;28;20022;-60
2022/12/03 07:08:47;;;;;;;28.38;20.45;;;3.00;99.90;;;;;;5054429;28;20033;-60
2022/12/03 07:11:30;;;;;;;27.05;21.52;;;3.20;99.90;;;;;;5054418;28;20032;-60
2022/12/03 07:13:58;;;;;;;36.38;23.75;;;3.20;99.90;;;;;;5054016;28;20044;-60
2022/12/03 07:16:24;;;;;;;40.70;28.58;;;3.30;99.90;;;;;;5054713;28;20033;-60
2022/12/03 07:18:50;;;;;;;25.40;20.25;;;3.20;99.90;;;;;;5053824;28;20097;-61
2022/12/03 07:21:16;;;;;;;31.60;25.67;;;3.40;99.90;;;;;;5054632;28;20335;-60
2022/12/03 07:23:42;;;;;;;45.78;32.33;;;3.50;99.90;;;;;;5054158;28;20048;-60
2022/12/03 07:26:07;;;;;;;34.50;26.27;;;3.50;99.90;;;;;;5054163;28;20108;-60
2022/12/03 07:28:33;;;;;;;29.55;23.45;;;3.60;99.90;;;;;;5053826;28;20029;-60
2022/12/03 07:30:59;;;;;;;34.17;26.15;;;3.60;99.90;;;;;;5054068;28;20092;-60
2022/12/03 07:33:25;;;;;;;35.75;26.70;;;3.70;99.90;;;;;;5054119;28;20033;-60
2022/12/03 07:35:50;;;;;;;28.42;22.48;;;3.80;99.90;;;;;;5053889;28;20017;-60
2022/12/03 07:38:16;;;;;;;32.08;24.40;;;3.80;99.90;;;;;;5053884;28;20029;-60
2022/12/03 07:40:42;;;;;;;29.88;24.52;;;3.90;99.90;;;;;;5053582;28;20068;-60
2022/12/03 07:43:07;;;;;;;30.08;25.77;;;3.90;99.90;;;;;;5053599;28;20025;-60
2022/12/03 07:45:33;;;;;;;80.05;48.63;;;3.90;99.90;;;;;;5053827;28;20496;-60
2022/12/03 07:47:59;;;;;;;81.28;51.70;;;3.90;99.90;;;;;;5053816;28;20098;-60
2022/12/03 07:50:27;;;;;;;32.78;26.10;;;4.00;99.90;;;;;;5054188;28;20493;-60
2022/12/03 07:52:53;;;;;;;36.13;27.02;;;4.00;99.90;;;;;;5053777;28;20035;-60
2022/12/03 07:55:19;;;;;;;35.17;27.65;;;4.10;99.90;;;;;;5053459;28;20037;-61
2022/12/03 07:57:44;;;;;;;30.75;24.70;;;4.00;99.90;;;;;;5051867;28;20116;-60
2022/12/03 08:00:11;;;;;;;29.20;22.23;;;4.00;99.90;;;;;;5053481;28;20043;-60
2022/12/03 08:02:37;;;;;;;31.83;27.15;;;4.10;99.90;;;;;;5053585;28;20028;-60
2022/12/03 08:05:03;;;;;;;33.97;28.63;;;4.20;99.90;;;;;;5053672;28;20029;-60
2022/12/03 08:07:28;;;;;;;35.88;30.25;;;4.10;99.90;;;;;;5053259;28;20025;-60
2022/12/03 08:09:54;;;;;;;29.27;23.95;;;4.20;99.90;;;;;;5053865;28;20055;-60
2022/12/03 08:12:38;;;;;;;36.13;26.60;;;4.20;99.90;;;;;;5053032;28;20032;-60
2022/12/03 08:15:13;;;;;;;;;;;4.30;99.90;;;;;;5053665;28;20041;-61
2022/12/03 08:17:41;;;;;;;31.27;27.15;;;4.40;99.90;;;;;;5053270;28;19912;-60
2022/12/03 08:20:16;;;;;;;30.50;24.33;;;4.30;99.90;;;;;;5053338;28;20025;-60
2022/12/03 08:22:43;;;;;;;25.40;20.83;;;4.40;99.90;;;;;;5052976;28;20037;-60
2022/12/03 08:25:25;;;;;;;28.67;25.48;;;4.40;99.90;;;;;;5053193;28;20039;-60
2022/12/03 08:27:55;;;;;;;23.23;20.42;;;4.40;99.90;;;;;;5052699;28;20443;-60
2022/12/03 08:30:21;;;;;;;22.25;18.73;;;4.50;99.90;;;;;;5053293;28;20377;-60
2022/12/03 08:32:47;;;;;;;27.98;23.85;;;4.50;99.90;;;;;;5052740;28;20028;-60
2022/12/03 08:35:26;;;;;;;25.63;19.52;;;4.50;99.90;;;;;;5052724;28;20025;-60
2022/12/03 08:38:08;;;;;;;25.73;22.90;;;4.60;99.90;;;;;;5052873;28;20021;-62
2022/12/03 08:40:38;;;;;;;26.25;22.48;;;4.70;99.90;;;;;;5052120;28;20052;-60
2022/12/03 08:43:17;;;;;;;25.23;22.23;;;4.80;99.90;;;;;;5052585;28;20018;-60
2022/12/03 08:45:43;;;;;;;24.38;21.73;;;4.90;99.90;;;;;;5052698;28;20032;-60
2022/12/03 08:48:35;;;;;;;24.70;20.92;;;5.30;99.90;;;;;;5052848;28;20104;-61
2022/12/03 08:51:22;;;;;;;23.48;18.25;;;7.10;99.90;;;;;;5052505;28;20052;-60
2022/12/03 08:54:01;;;;;;;19.20;16.80;;;7.50;99.90;;;;;;5052419;28;20029;-60
2022/12/03 08:56:29;;;;;;;22.17;19.10;;;6.70;99.90;;;;;;5050896;28;20028;-60
2022/12/03 08:58:57;;;;;;;25.95;21.13;;;6.30;99.90;;;;;;5052413;28;20025;-60
2022/12/03 09:01:43;;;;;;;20.00;16.15;;;7.00;99.90;;;;;;5052014;28;20071;-60
2022/12/03 09:04:23;;;;;;;20.80;16.10;;;7.70;99.90;;;;;;5052291;28;20096;-60
2022/12/03 09:06:50;;;;;;;18.35;15.98;;;6.90;99.90;;;;;;5052087;28;20033;-60
2022/12/03 09:09:16;;;;;;;22.27;16.80;;;7.60;99.90;;;;;;5052032;28;20079;-60
2022/12/03 09:11:43;;;;;;;20.90;18.65;;;8.00;99.90;;;;;;5052880;28;20100;-60
2022/12/03 09:14:08;;;;;;;20.38;17.52;;;9.50;99.90;;;;;;5052053;28;20049;-60
2022/12/03 09:16:34;;;;;;;27.17;23.17;;;8.80;99.90;;;;;;5051975;28;20075;-60
2022/12/03 09:19:00;;;;;;;24.58;21.88;;;8.50;99.90;;;;;;5051953;28;20437;-60
2022/12/03 09:21:26;;;;;;;20.75;16.02;;;8.70;99.90;;;;;;5052318;28;20029;-60
2022/12/03 09:23:51;;;;;;;20.58;17.38;;;8.70;99.90;;;;;;5051658;28;20553;-60
2022/12/03 09:26:17;;;;;;;19.73;17.60;;;8.20;99.90;;;;;;5051753;28;20070;-60
2022/12/03 09:28:43;;;;;;;18.75;15.05;;;8.60;99.90;;;;;;5052137;28;20087;-60
2022/12/03 09:31:08;;;;;;;15.43;13.82;;;9.40;99.90;;;;;;5051613;28;20060;-60
2022/12/03 09:33:34;;;;;;;16.92;15.13;;;10.00;99.90;;;;;;5051480;28;20473;-60
2022/12/03 09:36:00;;;;;;;19.33;16.42;;;9.50;99.90;;;;;;5051630;28;20025;-59
2022/12/03 09:38:25;;;;;;;17.13;15.25;;;8.50;99.90;;;;;;5051631;28;20036;-60
2022/12/03 09:40:52;;;;;;;15.63;13.95;;;8.90;99.90;;;;;;5051426;28;20076;-60
2022/12/03 09:43:18;;;;;;;15.73;13.90;;;10.90;99.90;;;;;;5051325;28;20036;-60
2022/12/03 09:45:45;;;;;;;15.07;13.48;;;10.70;99.90;;;;;;5052356;28;20029;-59
2022/12/03 09:48:14;;;;;;;15.90;14.20;;;12.60;99.90;;;;;;5051560;28;20104;-60
2022/12/03 09:50:41;;;;;;;15.40;13.60;;;11.50;99.90;;;;;;5051414;28;20033;-59
2022/12/03 09:53:13;;;;;;;16.08;13.93;;;11.00;99.90;;;;;;5051172;28;20032;-60
2022/12/03 09:55:39;;;;;;;15.13;13.52;;;11.30;99.90;;;;;;5051505;28;20028;-60
2022/12/03 09:58:12;;;;;;;14.63;13.13;;;11.90;99.90;;;;;;5051944;28;20025;-60
2022/12/03 10:00:38;;;;;;;15.95;14.25;;;11.80;99.90;;;;;;5051578;28;20025;-60
2022/12/03 10:03:06;;;;;;;13.60;12.20;;;12.00;99.90;;;;;;5051304;28;20424;-60
2022/12/03 10:05:33;;;;;;;14.55;13.00;;;15.20;99.90;;;;;;5050001;28;20074;-60
2022/12/03 10:08:20;;;;;;;14.25;12.77;;;14.30;99.90;;;;;;5050854;28;20021;-60
2022/12/03 10:10:51;;;;;;;16.50;14.20;;;13.90;99.90;;;;;;5051090;28;20104;-59
2022/12/03 10:13:33;;;;;;;16.80;13.63;;;13.90;99.90;;;;;;5051013;28;20029;-63
2022/12/03 10:16:00;;;;;;;16.65;13.65;;;12.10;99.90;;;;;;5051122;28;20063;-59
2022/12/03 10:18:32;;;;;;;15.55;13.95;;;11.70;99.90;;;;;;5051118;28;20465;-60
2022/12/03 10:20:58;;;;;;;15.20;13.57;;;11.60;99.90;;;;;;5050364;28;20016;-60
2022/12/03 10:23:26;;;;;;;16.02;12.88;;;13.80;99.90;;;;;;5050776;28;20485;-60
2022/12/03 10:25:56;;;;;;;15.40;12.80;;;12.70;99.90;;;;;;5051512;28;20490;-60
2022/12/03 10:28:28;;;;;;;15.30;13.57;;;10.90;99.90;;;;;;5050780;28;20397;-60
2022/12/03 10:30:54;;;;;;;17.15;14.45;;;11.20;99.90;;;;;;5051022;28;20039;-60
2022/12/03 10:33:20;;;;;;;17.83;15.93;;;8.80;99.90;;;;;;5050983;28;20032;-60
2022/12/03 10:35:46;;;;;;;17.10;14.15;;;8.90;99.90;;;;;;5051660;28;20021;-59
2022/12/03 10:38:22;;;;;;;14.93;12.48;;;10.10;99.90;;;;;;5050615;28;20025;-60
2022/12/03 10:40:48;;;;;;;14.85;13.25;;;10.90;99.90;;;;;;5050781;28;20123;-60
2022/12/03 10:43:17;;;;;;;14.98;13.32;;;12.50;99.90;;;;;;5050793;28;20048;-60
2022/12/03 10:45:45;;;;;;;14.98;13.32;;;15.40;99.90;;;;;;5051139;28;20389;-60
2022/12/03 10:48:19;;;;;;;15.75;12.77;;;14.00;99.90;;;;;;5050926;28;20482;-60
2022/12/03 10:50:53;;;;;;;14.45;12.93;;;14.30;99.90;;;;;;5050645;28;20032;-60
2022/12/03 10:53:28;;;;;;;14.90;13.13;;;15.00;99.90;;;;;;5050835;28;20025;-61
2022/12/03 10:55:58;;;;;;;14.75;12.38;;;15.20;99.90;;;;;;5051029;28;20013;-60
2022/12/03 10:58:29;;;;;;;14.18;12.20;;;14.30;99.90;;;;;;5050929;28;20070;-60
2022/12/03 11:00:57;;;;;;;13.63;12.20;;;12.40;99.90;;;;;;5050835;28;20024;-60
2022/12/03 11:03:28;;;;;;;14.82;12.88;;;13.20;99.90;;;;;;5050791;28;20474;-60
2022/12/03 11:05:55;;;;;;;13.80;12.30;;;11.40;99.90;;;;;;5050461;28;20033;-60
2022/12/03 11:08:35;;;;;;;16.17;13.63;;;11.00;99.90;;;;;;5050690;28;20025;-60
2022/12/03 11:11:03;;;;;;;19.42;14.23;;;10.30;99.90;;;;;;5050607;28;20127;-60
2022/12/03 11:13:32;;;;;;;22.08;16.30;;;12.10;99.90;;;;;;5049315;28;20488;-60
2022/12/03 11:16:01;;;;;;;19.02;15.07;;;13.60;99.90;;;;;;5050951;28;20040;-60
2022/12/03 11:18:35;;;;;;;15.07;12.23;;;12.70;99.90;;;;;;5050762;28;20033;-60
2022/12/03 11:21:08;;;;;;;15.20;12.50;;;13.60;99.90;;;;;;5050176;28;20017;-60
2022/12/03 11:23:46;;;;;;;17.10;12.25;;;13.50;99.90;;;;;;5050443;28;20517;-60
2022/12/03 11:26:35;;;;;;;23.50;20.08;;;13.90;99.90;;;;;;5050727;28;20100;-60
2022/12/03 11:29:02;;;;;;;15.80;14.20;;;12.20;99.90;;;;;;5050877;28;20029;-60
2022/12/03 11:31:40;;;;;;;16.77;14.77;;;12.20;99.90;;;;;;5050430;28;20455;-60
2022/12/03 11:34:17;;;;;;;15.10;13.25;;;13.10;99.90;;;;;;5053975;28;20029;-60
2022/12/03 11:37:08;;;;;;;13.25;11.05;;;14.10;99.90;;;;;;5054212;28;20029;-60
2022/12/03 11:39:49;;;;;;;11.75;10.55;;;13.70;99.90;;;;;;5053574;28;20035;-60
2022/12/03 11:42:26;;;;;;;12.82;10.65;;;12.90;99.90;;;;;;5053835;28;20043;-60
2022/12/03 11:45:04;;;;;;;12.90;10.93;;;12.70;99.90;;;;;;5053757;28;20044;-60
2022/12/03 11:47:36;;;;;;;12.45;11.15;;;11.20;99.90;;;;;;5054120;28;20092;-60
2022/12/03 11:50:33;;;;;;;11.93;10.63;;;10.60;99.90;;;;;;5053284;28;20029;-60
2022/12/03 11:52:59;;;;;;;11.00;9.90;;;12.10;99.90;;;;;;5053632;28;20036;-60
2022/12/03 11:55:39;;;;;;;10.43;9.05;;;13.60;99.90;;;;;;5053329;28;20033;-60
2022/12/03 11:58:14;;;;;;;9.25;8.20;;;14.10;99.90;;;;;;5053593;28;20021;-60
2022/12/03 12:00:50;;;;;;;9.60;8.57;;;13.90;99.90;;;;;;5053435;28;20025;-60
2022/12/03 12:03:28;;;;;;;9.90;8.85;;;14.00;99.90;;;;;;5053275;28;20021;-60
2022/12/03 12:06:07;;;;;;;10.32;8.93;;;12.90;99.90;;;;;;5053383;28;20033;-60
2022/12/03 12:08:39;;;;;;;9.55;8.30;;;12.70;99.90;;;;;;5053155;28;20029;-60
2022/12/03 12:11:28;;;;;;;9.65;8.65;;;13.30;99.90;;;;;;5053331;28;20025;-59
2022/12/03 12:13:56;;;;;;;11.43;8.68;;;12.20;99.90;;;;;;5053368;28;20076;-59
2022/12/03 12:16:42;;;;;;;9.60;8.60;;;12.10;99.90;;;;;;5053222;28;20263;-60
2022/12/03 12:19:29;;;;;;;8.63;7.70;;;12.00;99.90;;;;;;5052774;28;20035;-59
2022/12/03 12:22:37;;;;;;;10.00;9.00;;;12.50;99.90;;;;;;5053144;28;20084;-60
2022/12/03 12:25:24;;;;;;;8.52;7.45;;;13.50;99.90;;;;;;5051803;28;20048;-60
2022/12/03 12:27:52;;;;;;;9.73;8.73;;;13.40;99.90;;;;;;5052945;28;20501;-60
2022/12/03 12:30:20;;;;;;;9.23;7.65;;;12.70;99.90;;;;;;5052751;28;20058;-60
2022/12/03 12:32:51;;;;;;;9.70;8.15;;;12.60;99.90;;;;;;5052882;28;20021;-59
2022/12/03 12:35:20;;;;;;;9.18;8.27;;;12.20;99.90;;;;;;5052610;28;20061;-60
2022/12/03 12:37:49;;;;;;;10.85;8.70;;;12.20;99.90;;;;;;5052799;28;20029;-60
2022/12/03 12:40:17;;;;;;;9.82;8.82;;;11.40;99.90;;;;;;5052940;28;20323;-62
2022/12/03 12:42:54;;;;;;;10.00;8.95;;;11.50;99.90;;;;;;5052660;28;20130;-60
2022/12/03 12:45:23;;;;;;;11.10;8.63;;;11.20;99.90;;;;;;5052126;28;20135;-60
2022/12/03 12:48:12;;;;;;;10.18;7.93;;;10.80;99.90;;;;;;5052436;28;20023;-60
2022/12/03 12:50:39;;;;;;;9.25;8.15;;;10.30;99.90;;;;;;5049052;28;20090;-60
2022/12/03 12:53:31;;;;;;;8.35;7.53;;;9.80;99.90;;;;;;5052863;28;20289;-60
2022/12/03 12:56:18;;;;;;;8.32;7.53;;;9.80;99.90;;;;;;5050896;28;20099;-60
2022/12/03 12:58:44;;;;;;;9.50;8.27;;;10.70;99.90;;;;;;5052908;28;20039;-60
2022/12/03 13:01:23;;;;;;;9.30;8.02;;;11.50;99.90;;;;;;5051879;28;20143;-60